Current | Forecast
Updated: 10:02 PM JST on February 20, 2018
Observed at Yokota AB, Japan
Temperature 39°F
Windchill 34°F
Humidity 56%
Dew Point 25°F
Wind NW at 8 mph
Pressure 30.01 in (Steady)
Conditions Partly Cloudy
Visibility 10.0 miles
UV 0 out of 16
Clouds (FEW) : 21000 ft
Yesterday's Maximum 49°F
Yesterday's Minimum 30°F approx.
Yesterday's Heating Degree Days 26 approx.
Sunrise6:25 AM JST
Sunset5:29 PM JST
Moon Rise8:53 AM JST
Moon Set9:42 PM JST
Moon PhaseMoon Phase
Waxing Crescent
Raw METARSPECI RJTY 201302Z AUTO 32007KT 10SM FEW210 04/M04 A2998 RMK AO2 SLP161 FZRANO $


Monday
. High: 78° F.
Tuesday
. High: 80° F.
Wednesday
. High: 69° F.
Thursday
. High: 75° F.
Friday
. High: 77° F.
Saturday
. High: 82° F.
Sunday
. High: 78° F.
Monday
. High: 75° F.

Units: English | Metric

Find the Weather for any City, State or Zipcode, or Country:

U.S. State List | Severe Weather | Tropical Storms | Ski Conditions
United States | Canada | Central America | South America | Asia | Europe | Australia | Africa | Islands

Weather Underground

© Copyright 2018
The Weather Company, LLC